Time;durP1;ratioP1;P1;durP2;ratioP2;P2;SDS_P1;SDS_P2;PMS_P1;PMS_P2;Temp;Humidity;BMP_temperature;BMP_pressure;BME280_temperature;BME280_humidity;BME280_pressure;Samples;Min_cycle;Max_cycle;Signal;HPM_P1;HPM_P2
2023/12/19 00:01:52;;;;;;;86.45;34.03;;;;;;;;;;5032876;28;22258;-82
2023/12/19 00:04:18;;;;;;;76.32;32.38;;;;;;;;;;5031557;28;20047;-82
2023/12/19 00:06:44;;;;;;;73.22;32.08;;;;;;;;;;5049448;28;20398;-83
2023/12/19 00:09:10;;;;;;;82.78;34.55;;;;;;;;;;5047566;28;20500;-83
2023/12/19 00:11:36;;;;;;;66.97;29.08;;;;;;;;;;5058706;28;20611;-84
2023/12/19 00:14:02;;;;;;;65.72;25.92;;;;;;;;;;5043130;28;20040;-80
2023/12/19 00:16:28;;;;;;;60.20;27.58;;;;;;;;;;5049510;28;20049;-83
2023/12/19 00:18:54;;;;;;;59.38;23.85;;;;;;;;;;5063186;28;20036;-80
2023/12/19 00:21:20;;;;;;;70.55;28.70;;;;;;;;;;5064292;28;20036;-83
2023/12/19 00:23:46;;;;;;;70.03;27.58;;;;;;;;;;5030056;28;20150;-84
2023/12/19 00:26:13;;;;;;;71.90;29.80;;;;;;;;;;5046071;28;20036;-83
2023/12/19 00:28:39;;;;;;;73.18;28.48;;;;;;;;;;5033588;28;20511;-82
2023/12/19 00:31:05;;;;;;;59.90;27.35;;;;;;;;;;5033341;28;20195;-82
2023/12/19 00:33:32;;;;;;;55.22;23.25;;;;;;;;;;5063926;28;20078;-81
2023/12/19 00:35:59;;;;;;;60.10;26.70;;;;;;;;;;5050003;28;20048;-78
2023/12/19 00:38:25;;;;;;;54.10;25.02;;;;;;;;;;5048863;28;20056;-79
2023/12/19 00:40:51;;;;;;;64.00;25.98;;;;;;;;;;5060823;28;20036;-79
2023/12/19 00:43:17;;;;;;;60.63;26.33;;;;;;;;;;5051879;28;20031;-80
2023/12/19 00:45:43;;;;;;;54.25;23.05;;;;;;;;;;5040113;28;20155;-81
2023/12/19 00:48:10;;;;;;;55.03;24.25;;;;;;;;;;5035136;28;20059;-81
2023/12/19 00:50:36;;;;;;;39.17;18.85;;;;;;;;;;5065868;28;20052;-79
2023/12/19 00:53:02;;;;;;;67.95;27.45;;;;;;;;;;5080963;28;20079;-78
2023/12/19 00:55:28;;;;;;;53.25;23.33;;;;;;;;;;5059463;28;20077;-77
2023/12/19 00:57:54;;;;;;;54.78;24.63;;;;;;;;;;5047633;28;20105;-78
2023/12/19 01:00:20;;;;;;;62.25;24.42;;;;;;;;;;5063582;28;20120;-79
2023/12/19 01:02:46;;;;;;;58.00;22.98;;;;;;;;;;5050208;28;20509;-78
2023/12/19 01:05:12;;;;;;;48.92;21.70;;;;;;;;;;5035511;28;20036;-78
2023/12/19 01:07:38;;;;;;;62.45;24.63;;;;;;;;;;5051514;28;20044;-79
2023/12/19 01:10:05;;;;;;;43.00;21.27;;;;;;;;;;5047532;28;20041;-78
2023/12/19 01:12:31;;;;;;;47.83;21.45;;;;;;;;;;5043357;28;20040;-78
2023/12/19 01:14:57;;;;;;;53.42;22.80;;;;;;;;;;5049035;28;20037;-78
2023/12/19 01:17:24;;;;;;;37.13;16.98;;;;;;;;;;5067675;28;20036;-78
2023/12/19 01:19:50;;;;;;;58.95;24.52;;;;;;;;;;5066569;28;20048;-80
2023/12/19 01:22:16;;;;;;;60.55;25.80;;;;;;;;;;5033677;28;20391;-80
2023/12/19 01:24:42;;;;;;;64.75;27.23;;;;;;;;;;5039384;28;20511;-78
2023/12/19 01:27:08;;;;;;;52.47;22.73;;;;;;;;;;5053951;28;20119;-78
2023/12/19 01:29:34;;;;;;;60.83;27.00;;;;;;;;;;5065221;28;20066;-78
2023/12/19 01:32:00;;;;;;;37.10;17.08;;;;;;;;;;5052017;28;20119;-79
2023/12/19 01:34:26;;;;;;;60.53;24.90;;;;;;;;;;5067614;28;20055;-78
2023/12/19 01:36:54;;;;;;;59.67;25.98;;;;;;;;;;5055878;28;20044;-79
2023/12/19 01:39:21;;;;;;;52.75;22.83;;;;;;;;;;5067185;28;20036;-78
2023/12/19 01:41:47;;;;;;;50.08;21.75;;;;;;;;;;5052568;28;20047;-78
2023/12/19 01:44:20;;;;;;;42.65;19.08;;;;;;;;;;5019753;28;20048;-77
2023/12/19 01:46:46;;;;;;;47.83;23.88;;;;;;;;;;5049744;28;20087;-78
2023/12/19 01:49:13;;;;;;;52.65;23.35;;;;;;;;;;5072122;28;20042;-78
2023/12/19 01:51:39;;;;;;;49.75;24.65;;;;;;;;;;5037208;28;20071;-79
2023/12/19 01:54:07;;;;;;;55.47;22.38;;;;;;;;;;5020566;28;20038;-78
2023/12/19 01:56:33;;;;;;;35.65;17.20;;;;;;;;;;5085929;28;20040;-78
2023/12/19 01:59:00;;;;;;;35.88;16.52;;;;;;;;;;5051172;28;20033;-78
2023/12/19 02:01:26;;;;;;;50.17;22.73;;;;;;;;;;5032769;28;20057;-79
2023/12/19 02:03:52;;;;;;;51.15;21.75;;;;;;;;;;5082909;28;20050;-79
2023/12/19 02:06:21;;;;;;;52.17;23.25;;;;;;;;;;5058065;28;20450;-78
2023/12/19 02:08:48;;;;;;;49.60;21.17;;;;;;;;;;5041792;28;20598;-78
2023/12/19 02:11:14;;;;;;;45.90;19.90;;;;;;;;;;5068709;28;20041;-78
2023/12/19 02:13:42;;;;;;;51.80;23.90;;;;;;;;;;5066855;28;20093;-78
2023/12/19 02:16:08;;;;;;;39.35;18.38;;;;;;;;;;5080279;22;20571;-91
2023/12/19 02:18:34;;;;;;;46.33;21.33;;;;;;;;;;5017022;28;20042;-83
2023/12/19 02:21:00;;;;;;;41.03;19.35;;;;;;;;;;5036720;28;20045;-87
2023/12/19 02:23:27;;;;;;;49.55;22.70;;;;;;;;;;5046175;23;20131;-77
2023/12/19 02:25:53;;;;;;;47.65;22.73;;;;;;;;;;5069626;28;21791;-79
2023/12/19 02:28:19;;;;;;;41.38;20.13;;;;;;;;;;5070505;28;20507;-76
2023/12/19 02:30:45;;;;;;;54.63;23.75;;;;;;;;;;5065733;28;20052;-78
2023/12/19 02:33:11;;;;;;;38.80;19.13;;;;;;;;;;5068955;28;20036;-82
2023/12/19 02:35:37;;;;;;;50.88;23.13;;;;;;;;;;5050269;28;20539;-80
2023/12/19 02:38:04;;;;;;;38.65;18.98;;;;;;;;;;5066867;28;20047;-79
2023/12/19 02:40:30;;;;;;;46.35;18.88;;;;;;;;;;5051351;28;20510;-80
2023/12/19 02:42:56;;;;;;;40.63;19.05;;;;;;;;;;5067687;28;20059;-80
2023/12/19 02:45:22;;;;;;;44.78;18.13;;;;;;;;;;5068091;28;20039;-80
2023/12/19 02:47:48;;;;;;;40.90;17.02;;;;;;;;;;5050568;28;20048;-80
2023/12/19 02:50:14;;;;;;;42.50;18.02;;;;;;;;;;5064537;28;20127;-81
2023/12/19 02:52:40;;;;;;;41.97;17.92;;;;;;;;;;5068466;28;20045;-80
2023/12/19 02:55:06;;;;;;;53.70;21.92;;;;;;;;;;5049697;28;20097;-83
2023/12/19 02:57:32;;;;;;;26.73;13.38;;;;;;;;;;5048053;28;20044;-81
2023/12/19 02:59:58;;;;;;;46.92;19.77;;;;;;;;;;5067272;28;20497;-81
2023/12/19 03:02:25;;;;;;;32.95;16.05;;;;;;;;;;5050343;28;20039;-80
2023/12/19 03:04:51;;;;;;;33.60;15.45;;;;;;;;;;5049116;28;20113;-80
2023/12/19 03:07:17;;;;;;;39.85;17.63;;;;;;;;;;5052048;28;20053;-80
2023/12/19 03:09:43;;;;;;;35.67;17.90;;;;;;;;;;5067582;28;20036;-81
2023/12/19 03:12:09;;;;;;;25.17;14.35;;;;;;;;;;5047434;28;20036;-81
2023/12/19 03:14:35;;;;;;;33.95;16.38;;;;;;;;;;5066685;28;20052;-82
2023/12/19 03:17:03;;;;;;;35.33;17.15;;;;;;;;;;5064008;28;20824;-81
2023/12/19 03:19:29;;;;;;;36.90;18.02;;;;;;;;;;5064998;28;20044;-80
2023/12/19 03:21:55;;;;;;;39.67;19.50;;;;;;;;;;5029396;28;20035;-82
2023/12/19 03:24:22;;;;;;;39.13;17.60;;;;;;;;;;5063394;28;20071;-81
2023/12/19 03:26:48;;;;;;;37.80;16.67;;;;;;;;;;5032538;28;20063;-81
2023/12/19 03:29:14;;;;;;;36.53;16.35;;;;;;;;;;5049581;28;22488;-82
2023/12/19 03:31:42;;;;;;;32.28;16.25;;;;;;;;;;5045730;28;20044;-82
2023/12/19 03:34:08;;;;;;;45.47;18.95;;;;;;;;;;5049657;28;20067;-82
2023/12/19 03:36:34;;;;;;;43.42;19.42;;;;;;;;;;5045266;28;20041;-81
2023/12/19 03:39:00;;;;;;;41.03;16.77;;;;;;;;;;5064726;28;20512;-81
2023/12/19 03:41:26;;;;;;;56.42;21.90;;;;;;;;;;5047410;28;20718;-77
2023/12/19 03:43:52;;;;;;;47.28;18.60;;;;;;;;;;5050949;28;20081;-76
2023/12/19 03:46:18;;;;;;;43.58;18.02;;;;;;;;;;5051666;28;20078;-76
2023/12/19 03:48:45;;;;;;;37.50;16.55;;;;;;;;;;5048147;28;20444;-76
2023/12/19 03:51:13;;;;;;;47.83;21.40;;;;;;;;;;5050787;28;20078;-80
2023/12/19 03:53:39;;;;;;;51.15;20.30;;;;;;;;;;5064054;28;20121;-80
2023/12/19 03:56:06;;;;;;;52.33;20.23;;;;;;;;;;5050835;28;20040;-77
2023/12/19 03:58:32;;;;;;;51.42;19.58;;;;;;;;;;5051943;28;20044;-78
2023/12/19 04:01:00;;;;;;;46.53;21.73;;;;;;;;;;5050621;28;20490;-77
2023/12/19 04:03:26;;;;;;;33.70;14.25;;;;;;;;;;5047273;28;20040;-78
2023/12/19 04:05:52;;;;;;;41.95;17.15;;;;;;;;;;5064880;28;20036;-77
2023/12/19 04:08:18;;;;;;;44.10;17.25;;;;;;;;;;5048614;28;20055;-78
2023/12/19 04:10:44;;;;;;;44.83;20.58;;;;;;;;;;5064802;28;20127;-76
2023/12/19 04:13:10;;;;;;;33.03;13.77;;;;;;;;;;5064363;28;20478;-79
2023/12/19 04:15:36;;;;;;;34.75;15.25;;;;;;;;;;5034848;28;20103;-77
2023/12/19 04:18:03;;;;;;;25.45;12.75;;;;;;;;;;5049567;28;20045;-77
2023/12/19 04:20:29;;;;;;;35.05;15.93;;;;;;;;;;5063692;28;20032;-76
2023/12/19 04:22:55;;;;;;;37.83;16.27;;;;;;;;;;5067963;28;20028;-76
2023/12/19 04:25:21;;;;;;;43.50;18.30;;;;;;;;;;5048596;28;20788;-76
2023/12/19 04:27:47;;;;;;;32.90;14.82;;;;;;;;;;5049366;28;20125;-78
2023/12/19 04:30:13;;;;;;;33.22;14.63;;;;;;;;;;5048262;28;20032;-76
2023/12/19 04:32:40;;;;;;;34.15;13.95;;;;;;;;;;5065492;28;20519;-76
2023/12/19 04:35:07;;;;;;;32.40;13.88;;;;;;;;;;5048399;28;20032;-76
2023/12/19 04:37:33;;;;;;;26.63;12.65;;;;;;;;;;5027944;28;20326;-76
2023/12/19 04:39:59;;;;;;;30.00;13.63;;;;;;;;;;5049401;28;20387;-77
2023/12/19 04:42:25;;;;;;;28.98;13.45;;;;;;;;;;5062222;28;20059;-76
2023/12/19 04:44:51;;;;;;;35.67;13.27;;;;;;;;;;5064970;28;20037;-76
2023/12/19 04:47:17;;;;;;;30.23;12.18;;;;;;;;;;5050189;28;20589;-79
2023/12/19 04:49:43;;;;;;;33.20;14.00;;;;;;;;;;5047878;28;20153;-80
2023/12/19 04:52:09;;;;;;;29.52;14.30;;;;;;;;;;5050990;28;20074;-77
2023/12/19 04:54:35;;;;;;;33.13;13.05;;;;;;;;;;5062774;28;20051;-76
2023/12/19 04:57:02;;;;;;;23.13;10.55;;;;;;;;;;5066453;28;20044;-79
2023/12/19 04:59:28;;;;;;;22.77;11.13;;;;;;;;;;5050588;28;20079;-77
2023/12/19 05:01:54;;;;;;;28.02;10.15;;;;;;;;;;5037308;28;20124;-76
2023/12/19 05:04:20;;;;;;;21.65;9.38;;;;;;;;;;5068762;28;20503;-76
2023/12/19 05:06:46;;;;;;;20.50;9.70;;;;;;;;;;5071137;28;21290;-76
2023/12/19 05:09:13;;;;;;;19.42;8.90;;;;;;;;;;5053837;28;20046;-77
2023/12/19 05:11:42;;;;;;;22.50;11.07;;;;;;;;;;5040471;28;20111;-76
2023/12/19 05:14:08;;;;;;;17.80;8.10;;;;;;;;;;5054879;28;20047;-76
2023/12/19 05:16:34;;;;;;;21.17;10.57;;;;;;;;;;5053239;28;20048;-77
2023/12/19 05:19:00;;;;;;;24.05;11.55;;;;;;;;;;5067199;28;20040;-77
2023/12/19 05:21:26;;;;;;;19.80;9.45;;;;;;;;;;5070453;28;20040;-77
2023/12/19 05:23:52;;;;;;;20.90;9.82;;;;;;;;;;5070845;28;20440;-78
2023/12/19 05:26:19;;;;;;;19.65;8.45;;;;;;;;;;5071064;28;20139;-77
2023/12/19 05:28:45;;;;;;;26.23;11.48;;;;;;;;;;5056572;28;20447;-76
2023/12/19 05:31:11;;;;;;;24.85;10.55;;;;;;;;;;5051807;28;20032;-76
2023/12/19 05:33:37;;;;;;;21.60;9.35;;;;;;;;;;5073894;28;20130;-76
2023/12/19 05:36:03;;;;;;;14.43;7.75;;;;;;;;;;5051669;28;20143;-77
2023/12/19 05:38:32;;;;;;;17.60;9.25;;;;;;;;;;5055423;28;20040;-76
2023/12/19 05:40:58;;;;;;;20.45;9.63;;;;;;;;;;5072178;28;20158;-79
2023/12/19 05:43:25;;;;;;;14.45;7.63;;;;;;;;;;5042706;28;20032;-76
2023/12/19 05:45:51;;;;;;;14.13;7.55;;;;;;;;;;5072954;28;20047;-77
2023/12/19 05:48:17;;;;;;;20.15;9.40;;;;;;;;;;5053031;28;20092;-75
2023/12/19 05:50:43;;;;;;;14.20;7.93;;;;;;;;;;5071618;28;20040;-75
2023/12/19 05:53:09;;;;;;;16.52;7.63;;;;;;;;;;5073118;28;20051;-77
2023/12/19 05:55:35;;;;;;;14.52;7.93;;;;;;;;;;5054899;28;20097;-76
2023/12/19 05:58:02;;;;;;;14.48;7.97;;;;;;;;;;5055084;28;20127;-76
2023/12/19 06:00:28;;;;;;;14.65;8.20;;;;;;;;;;5056502;28;20036;-80
2023/12/19 06:02:54;;;;;;;16.10;8.05;;;;;;;;;;5033928;28;20110;-81
2023/12/19 06:05:20;;;;;;;17.38;7.88;;;;;;;;;;5056612;28;20036;-79
2023/12/19 06:07:46;;;;;;;17.00;8.23;;;;;;;;;;5052349;28;20047;-80
2023/12/19 06:10:13;;;;;;;20.58;8.20;;;;;;;;;;5069050;28;20052;-79
2023/12/19 06:12:40;;;;;;;17.25;7.75;;;;;;;;;;5066147;28;20043;-78
2023/12/19 06:15:12;;;;;;;17.02;8.70;;;;;;;;;;5050822;28;20383;-78
2023/12/19 06:17:48;;;;;;;20.67;9.82;;;;;;;;;;5065730;28;20055;-80
2023/12/19 06:20:15;;;;;;;15.70;7.13;;;;;;;;;;5063625;28;20394;-82
2023/12/19 06:22:42;;;;;;;15.98;7.40;;;;;;;;;;5066914;28;20043;-84
2023/12/19 06:25:08;;;;;;;20.92;8.98;;;;;;;;;;5049972;28;20109;-82
2023/12/19 06:27:34;;;;;;;18.98;8.48;;;;;;;;;;5050849;28;20451;-83
2023/12/19 06:30:01;;;;;;;21.80;9.90;;;;;;;;;;5038730;28;20434;-84
2023/12/19 06:32:27;;;;;;;17.38;8.57;;;;;;;;;;5053134;28;20040;-81
2023/12/19 06:34:55;;;;;;;19.75;9.50;;;;;;;;;;5045669;28;20047;-80
2023/12/19 06:37:21;;;;;;;11.18;6.25;;;;;;;;;;5047891;28;20057;-82
2023/12/19 06:39:47;;;;;;;14.50;7.80;;;;;;;;;;5066378;28;20051;-82
2023/12/19 06:42:13;;;;;;;18.52;7.95;;;;;;;;;;5065686;28;20066;-83
2023/12/19 06:44:39;;;;;;;12.40;6.32;;;;;;;;;;5068038;28;20083;-84
2023/12/19 06:47:05;;;;;;;17.73;7.72;;;;;;;;;;5068000;28;20039;-84
2023/12/19 06:49:31;;;;;;;22.05;8.75;;;;;;;;;;5054451;28;20510;-83
2023/12/19 06:51:57;;;;;;;20.60;9.15;;;;;;;;;;5049474;28;20032;-82
2023/12/19 06:54:24;;;;;;;19.65;9.27;;;;;;;;;;5033724;28;20487;-82
2023/12/19 06:56:50;;;;;;;16.95;7.75;;;;;;;;;;5050829;28;20036;-81
2023/12/19 06:59:16;;;;;;;17.95;8.07;;;;;;;;;;5066606;28;20131;-82
2023/12/19 07:01:44;;;;;;;13.45;6.38;;;;;;;;;;5035143;28;20039;-82
2023/12/19 07:04:10;;;;;;;19.95;8.63;;;;;;;;;;5066711;28;20119;-78
2023/12/19 07:06:36;;;;;;;19.23;9.80;;;;;;;;;;5051396;28;20040;-83
2023/12/19 07:09:02;;;;;;;21.58;9.77;;;;;;;;;;5067758;28;20036;-81
2023/12/19 07:11:28;;;;;;;21.35;9.15;;;;;;;;;;5050880;28;20091;-75
2023/12/19 07:13:54;;;;;;;22.02;9.30;;;;;;;;;;5052880;28;20044;-76
2023/12/19 07:16:21;;;;;;;19.70;9.30;;;;;;;;;;5067012;28;20041;-76
2023/12/19 07:18:48;;;;;;;17.48;9.07;;;;;;;;;;5069121;28;20151;-76
2023/12/19 07:21:24;;;;;;;21.02;9.75;;;;;;;;;;5065088;28;20039;-78
2023/12/19 07:23:50;;;;;;;19.50;9.10;;;;;;;;;;5046917;28;20036;-76
2023/12/19 07:26:24;;;;;;;23.98;10.82;;;;;;;;;;5062708;28;20056;-78
2023/12/19 07:28:51;;;;;;;22.15;9.05;;;;;;;;;;5049061;28;20044;-77
2023/12/19 07:31:24;;;;;;;22.58;8.68;;;;;;;;;;5065422;28;20044;-78
2023/12/19 07:33:51;;;;;;;19.33;9.35;;;;;;;;;;5049731;28;20066;-77
2023/12/19 07:36:17;;;;;;;20.92;9.88;;;;;;;;;;5048202;28;20066;-78
2023/12/19 07:38:43;;;;;;;19.48;7.60;;;;;;;;;;5047400;28;20048;-78
2023/12/19 07:41:09;;;;;;;18.45;8.73;;;;;;;;;;5038044;28;20040;-78
2023/12/19 07:43:36;;;;;;;17.88;7.20;;;;;;;;;;5064880;28;20448;-77
2023/12/19 07:46:06;;;;;;;21.70;10.65;;;;;;;;;;5067016;28;20036;-78
2023/12/19 07:48:32;;;;;;;20.55;9.50;;;;;;;;;;5068486;28;20048;-79
2023/12/19 07:50:58;;;;;;;24.77;10.65;;;;;;;;;;5066647;28;20070;-77
2023/12/19 07:53:27;;;;;;;24.80;9.90;;;;;;;;;;5049889;28;20040;-78
2023/12/19 07:55:53;;;;;;;17.63;8.05;;;;;;;;;;5065436;28;20105;-77
2023/12/19 07:58:20;;;;;;;24.90;10.40;;;;;;;;;;5036662;28;20078;-77
2023/12/19 08:00:48;;;;;;;22.70;9.60;;;;;;;;;;5052331;28;20081;-77
2023/12/19 08:03:15;;;;;;;22.73;10.23;;;;;;;;;;5062460;28;20495;-78
2023/12/19 08:05:47;;;;;;;26.05;10.82;;;;;;;;;;5050478;28;20039;-76
2023/12/19 08:08:13;;;;;;;19.27;9.10;;;;;;;;;;5046369;28;20402;-77
2023/12/19 08:10:39;;;;;;;21.33;9.32;;;;;;;;;;5049476;28;20044;-77
2023/12/19 08:13:05;;;;;;;30.02;9.98;;;;;;;;;;5050136;28;20052;-77
2023/12/19 08:15:31;;;;;;;25.15;10.73;;;;;;;;;;5030564;28;20051;-77
2023/12/19 08:17:57;;;;;;;22.70;9.52;;;;;;;;;;5048646;28;20093;-77
2023/12/19 08:20:24;;;;;;;22.05;9.35;;;;;;;;;;5065018;28;20042;-77
2023/12/19 08:22:50;;;;;;;21.48;9.07;;;;;;;;;;5051336;28;20040;-78
2023/12/19 08:25:16;;;;;;;21.27;9.35;;;;;;;;;;5049881;28;20494;-79
2023/12/19 08:27:42;;;;;;;21.70;10.20;;;;;;;;;;5048402;28;20092;-79
2023/12/19 08:30:09;;;;;;;20.25;9.77;;;;;;;;;;5049452;28;20032;-78
2023/12/19 08:32:35;;;;;;;20.67;10.13;;;;;;;;;;5066673;28;20149;-78
2023/12/19 08:35:02;;;;;;;17.77;8.25;;;;;;;;;;5045107;28;20040;-79
2023/12/19 08:37:32;;;;;;;20.75;9.10;;;;;;;;;;5065089;28;20548;-86
2023/12/19 08:40:02;;;;;;;15.65;7.60;;;;;;;;;;5049505;28;20028;-85
2023/12/19 08:42:28;;;;;;;13.70;7.13;;;;;;;;;;5047250;28;20036;-86
2023/12/19 08:44:58;;;;;;;19.42;9.23;;;;;;;;;;5055265;28;20075;-85
2023/12/19 08:47:24;;;;;;;17.17;8.88;;;;;;;;;;5083141;28;20127;-85
2023/12/19 08:49:53;;;;;;;18.23;9.27;;;;;;;;;;5048902;28;20082;-85
2023/12/19 08:52:23;;;;;;;20.33;9.68;;;;;;;;;;5049256;28;20094;-86
2023/12/19 08:54:51;;;;;;;17.52;9.80;;;;;;;;;;5062577;28;20383;-85
2023/12/19 08:57:17;;;;;;;20.23;8.70;;;;;;;;;;5049240;28;20066;-86
2023/12/19 08:59:43;;;;;;;22.98;9.32;;;;;;;;;;5048866;28;20074;-87
2023/12/19 09:02:10;;;;;;;22.52;9.93;;;;;;;;;;5048249;28;20039;-86
2023/12/19 09:04:36;;;;;;;23.02;10.82;;;;;;;;;;5068176;28;20075;-80
2023/12/19 09:07:03;;;;;;;20.15;10.60;;;;;;;;;;5068629;28;20126;-81
2023/12/19 09:09:29;;;;;;;23.40;8.68;;;;;;;;;;5065272;28;20047;-81
2023/12/19 09:11:55;;;;;;;22.27;10.90;;;;;;;;;;5067271;28;20044;-81
2023/12/19 09:14:22;;;;;;;21.55;10.35;;;;;;;;;;5063454;28;20458;-79
2023/12/19 09:16:49;;;;;;;17.85;8.65;;;;;;;;;;5050144;28;20040;-80
2023/12/19 09:19:16;;;;;;;18.80;10.02;;;;;;;;;;5034746;28;20047;-81
2023/12/19 09:21:43;;;;;;;23.55;11.07;;;;;;;;;;5032663;28;20119;-80
2023/12/19 09:24:12;;;;;;;24.65;10.10;;;;;;;;;;5049462;28;21724;-80
2023/12/19 09:26:39;;;;;;;22.90;10.10;;;;;;;;;;5047630;28;20062;-80
2023/12/19 09:29:08;;;;;;;24.52;10.05;;;;;;;;;;5050007;28;20040;-79
2023/12/19 09:31:35;;;;;;;22.83;10.35;;;;;;;;;;5052304;28;20059;-88
2023/12/19 09:34:02;;;;;;;21.95;9.90;;;;;;;;;;5044764;28;20040;-85
2023/12/19 09:36:28;;;;;;;13.20;7.40;;;;;;;;;;5048420;28;20043;-89
2023/12/19 09:38:54;;;;;;;22.30;9.82;;;;;;;;;;5066359;28;20048;-89
2023/12/19 09:41:20;;;;;;;23.75;9.60;;;;;;;;;;5033924;28;20044;-83
2023/12/19 09:43:46;;;;;;;30.92;11.73;;;;;;;;;;5033863;28;20036;-86
2023/12/19 09:46:13;;;;;;;27.15;11.98;;;;;;;;;;5046489;28;20035;-83
2023/12/19 09:48:43;;;;;;;26.83;11.55;;;;;;;;;;5056455;28;20043;-86
2023/12/19 09:51:11;;;;;;;28.90;12.43;;;;;;;;;;5052222;28;20112;-87
2023/12/19 09:53:39;;;;;;;27.05;12.02;;;;;;;;;;5073638;28;20036;-85
2023/12/19 09:56:05;;;;;;;30.83;12.95;;;;;;;;;;5069647;28;20117;-85
2023/12/19 09:58:32;;;;;;;32.00;13.77;;;;;;;;;;5057049;28;20076;-87
2023/12/19 10:00:59;;;;;;;29.70;13.20;;;;;;;;;;5054518;28;20350;-90
2023/12/19 10:03:27;;;;;;;33.83;14.32;;;;;;;;;;5050418;28;20051;-87
2023/12/19 10:05:53;;;;;;;38.50;13.57;;;;;;;;;;5070000;28;20044;-84
2023/12/19 10:08:21;;;;;;;35.90;13.07;;;;;;;;;;5030529;28;20044;-90
2023/12/19 10:10:52;;;;;;;37.92;15.32;;;;;;;;;;5073403;28;20040;-90
2023/12/19 10:13:35;;;;;;;38.08;14.75;;;;;;;;;;5069130;28;20048;-90
2023/12/19 10:16:04;;;;;;;37.78;14.85;;;;;;;;;;5055040;28;20062;-89
2023/12/19 10:18:30;;;;;;;46.00;16.17;;;;;;;;;;5055775;28;20039;-89
2023/12/19 10:21:11;;;;;;;43.42;15.32;;;;;;;;;;5070087;28;20054;-87
2023/12/19 10:23:37;;;;;;;41.60;15.40;;;;;;;;;;5054356;28;20043;-89
2023/12/19 10:26:04;;;;;;;41.65;15.25;;;;;;;;;;5054204;28;20055;-90
2023/12/19 10:28:30;;;;;;;37.58;13.23;;;;;;;;;;5052096;28;20098;-88
2023/12/19 10:31:12;;;;;;;35.08;14.77;;;;;;;;;;5071017;28;20487;-86
2023/12/19 10:33:45;;;;;;;40.67;16.05;;;;;;;;;;5067737;28;20502;-84
2023/12/19 10:36:28;;;;;;;37.72;13.70;;;;;;;;;;5070333;28;20122;-87
2023/12/19 10:38:56;;;;;;;34.45;13.30;;;;;;;;;;5069439;28;20177;-89
2023/12/19 10:41:32;;;;;;;39.53;15.63;;;;;;;;;;5069352;28;20043;-80
2023/12/19 10:43:59;;;;;;;41.75;15.55;;;;;;;;;;5066464;28;20036;-82
2023/12/19 10:46:27;;;;;;;42.03;16.00;;;;;;;;;;5049812;28;20033;-80
2023/12/19 10:49:03;;;;;;;36.10;15.50;;;;;;;;;;5050631;28;20055;-80
2023/12/19 10:51:32;;;;;;;40.83;15.40;;;;;;;;;;5052427;28;20044;-80
2023/12/19 10:54:01;;;;;;;33.33;13.57;;;;;;;;;;5052501;28;20048;-80
2023/12/19 10:56:30;;;;;;;39.28;14.98;;;;;;;;;;5052126;28;20092;-78
2023/12/19 10:58:59;;;;;;;34.80;13.52;;;;;;;;;;5066790;28;20111;-80
2023/12/19 11:01:28;;;;;;;35.38;14.15;;;;;;;;;;5048962;28;20044;-80
2023/12/19 11:03:59;;;;;;;31.08;13.32;;;;;;;;;;5051276;28;20395;-80
2023/12/19 11:06:32;;;;;;;30.40;13.45;;;;;;;;;;5064027;28;20491;-79
2023/12/19 11:09:03;;;;;;;32.83;13.27;;;;;;;;;;5050585;28;20044;-80
2023/12/19 11:11:36;;;;;;;32.22;12.90;;;;;;;;;;5066909;28;20119;-80
2023/12/19 11:14:04;;;;;;;28.50;11.50;;;;;;;;;;5049802;28;20074;-80
2023/12/19 11:16:48;;;;;;;30.20;12.60;;;;;;;;;;5048242;28;20564;-80
2023/12/19 11:19:22;;;;;;;32.15;13.65;;;;;;;;;;5047528;28;20099;-79
2023/12/19 11:22:09;;;;;;;32.05;13.93;;;;;;;;;;5051780;28;20100;-79
2023/12/19 11:24:53;;;;;;;41.08;14.70;;;12.70;99.90;;;;;;5052298;28;20074;-78
2023/12/19 11:27:21;;;;;;;24.50;10.95;;;;;;;;;;5047968;28;20047;-81
2023/12/19 11:29:50;;;;;;;34.50;13.77;;;;;;;;;;5068541;28;20044;-83
2023/12/19 11:32:31;;;;;;;33.92;13.50;;;;;;;;;;5053373;28;20148;-79
2023/12/19 11:35:06;;;;;;;40.30;14.13;;;;;;;;;;5051213;28;20089;-80
2023/12/19 11:37:33;;;;;;;34.38;13.00;;;;;;;;;;5051144;28;20059;-80
2023/12/19 11:39:59;;;;;;;35.58;12.90;;;;;;;;;;5052199;28;20491;-81
2023/12/19 11:42:40;;;;;;;28.73;10.93;;;;;;;;;;5051122;28;20075;-80
2023/12/19 11:45:18;;;;;;;31.98;14.13;;;;;;;;;;5053119;28;20683;-80
2023/12/19 11:47:45;;;;;;;36.15;13.85;;;;;;;;;;5050811;28;20043;-80
2023/12/19 11:50:12;;;;;;;36.88;13.90;;;;;;;;;;5030601;28;20039;-80
2023/12/19 11:52:38;;;;;;;34.35;13.00;;;;;;;;;;5068766;28;20036;-80
2023/12/19 11:55:05;;;;;;;36.67;13.35;;;;;;;;;;5067895;28;20036;-79
2023/12/19 11:57:32;;;;;;;34.05;13.90;;;;;;;;;;5051707;28;20040;-80
2023/12/19 12:00:00;;;;;;;38.58;15.32;;;;;;;;;;5067648;28;20134;-80
2023/12/19 12:02:36;;;;;;;37.75;13.60;;;;;;;;;;5048278;28;20032;-80
2023/12/19 12:05:16;;;;;;;34.35;13.48;;;;;;;;;;5067335;28;20039;-80
2023/12/19 12:07:48;;;;;;;33.58;13.32;;;;;;;;;;5068582;28;20055;-80
2023/12/19 12:10:20;;;;;;;35.75;13.18;;;;;;;;;;5053449;28;20059;-80
2023/12/19 12:12:46;;;;;;;30.10;12.52;;;;;;;;;;5054468;28;20536;-80
2023/12/19 12:15:18;;;;;;;33.53;12.52;;;;;;;;;;5050964;28;20032;-80
2023/12/19 12:17:45;;;;;;;31.98;12.75;;;;;;;;;;5067809;28;20471;-80
2023/12/19 12:20:12;;;;;;;35.85;12.70;;;;;;;;;;5051777;28;20039;-79
2023/12/19 12:22:38;;;;;;;31.80;12.02;;;;;;;;;;5034656;28;20119;-79
2023/12/19 12:25:04;;;;;;;32.22;12.85;;;;;;;;;;5051277;28;20494;-79
2023/12/19 12:27:30;;;;;;;34.95;13.98;;;;;;;;;;5052910;28;20050;-79
2023/12/19 12:29:57;;;;;;;33.65;13.35;;;;;;;;;;5050032;28;20463;-80
2023/12/19 12:32:27;;;;;;;28.77;12.18;;;;;;;;;;5052889;28;20827;-80
2023/12/19 12:34:53;;;;;;;27.08;11.48;;;;;;;;;;5051213;28;20048;-79
2023/12/19 12:37:21;;;;;;;32.92;13.05;;;;;;;;;;5061495;28;20040;-79
2023/12/19 12:39:47;;;;;;;33.90;12.65;;;;;;;;;;5065262;28;20044;-80
2023/12/19 12:42:14;;;;;;;29.38;12.35;;;;;;;;;;5054620;28;20036;-80
2023/12/19 12:44:41;;;;;;;35.95;13.35;;;;;;;;;;5049831;28;20043;-80
2023/12/19 12:47:08;;;;;;;31.20;12.32;;;;;;;;;;5054304;28;20082;-80
2023/12/19 12:49:35;;;;;;;31.50;12.50;;;;;;;;;;5068634;28;20056;-80
2023/12/19 12:52:01;;;;;;;32.30;12.95;;;;;;;;;;5063105;28;20047;-80
2023/12/19 12:54:30;;;;;;;27.55;10.48;;;;;;;;;;5035401;28;20032;-80
2023/12/19 12:56:56;;;;;;;30.10;12.68;;;;;;;;;;5065092;28;20044;-80
2023/12/19 12:59:28;;;;;;;31.42;12.68;;;;;;;;;;5030596;28;20082;-78
2023/12/19 13:01:55;;;;;;;29.73;12.52;;;;;;;;;;5046102;28;20036;-80
2023/12/19 13:04:22;;;;;;;28.20;12.15;;;;;;;;;;5052070;28;20028;-80
2023/12/19 13:06:50;;;;;;;29.75;12.13;;;;;;;;;;5047025;28;20543;-80
2023/12/19 13:09:19;;;;;;;28.10;12.60;;;;;;;;;;5053121;28;20040;-80
2023/12/19 13:11:47;;;;;;;27.77;12.07;;;;;;;;;;5069411;28;20101;-80
2023/12/19 13:14:13;;;;;;;25.05;11.18;;;;;;;;;;5051781;28;20091;-80
2023/12/19 13:16:39;;;;;;;23.90;10.95;;;;;;;;;;5072012;28;20449;-80
2023/12/19 13:19:05;;;;;;;24.63;10.70;;;;;;;;;;5068516;28;20411;-80
2023/12/19 13:21:32;;;;;;;24.02;10.95;;;;;;;;;;5055921;28;20036;-80
2023/12/19 13:23:58;;;;;;;21.58;10.00;;;;;;;;;;5048381;28;20510;-80
2023/12/19 13:26:32;;;;;;;22.35;10.70;;;;;;;;;;5038237;28;20170;-80
2023/12/19 13:28:59;;;;;;;21.63;9.90;;;;;;;;;;5054642;28;20055;-80
2023/12/19 13:31:27;;;;;;;21.40;10.23;;;;;;;;;;5055589;28;20080;-80
2023/12/19 13:33:53;;;;;;;27.60;11.68;;;;;;;;;;5050051;28;20047;-80
2023/12/19 13:36:20;;;;;;;25.23;11.60;;;;;;;;;;5038090;28;20044;-80
2023/12/19 13:38:47;;;;;;;30.35;12.27;;;;;;;;;;5039042;28;20119;-79
2023/12/19 13:41:15;;;;;;;32.42;12.40;;;;;;;;;;5054663;28;20034;-80
2023/12/19 13:43:41;;;;;;;33.17;13.63;;;;;;;;;;5071514;28;20039;-79
2023/12/19 13:46:07;;;;;;;37.83;13.50;;;;;;;;;;5070355;28;20093;-79
2023/12/19 13:48:34;;;;;;;38.03;13.65;;;;;;;;;;5073429;28;20047;-79
2023/12/19 13:51:00;;;;;;;42.67;15.75;;;;;;;;;;5053855;28;20097;-79
2023/12/19 13:53:26;;;;;;;33.72;12.32;;;;;;;;;;5068389;28;20067;-79
2023/12/19 13:55:53;;;;;;;38.78;13.52;;;;;;;;;;5072642;28;20043;-80
2023/12/19 13:58:19;;;;;;;37.80;13.40;;;;;;;;;;5039273;28;20032;-80
2023/12/19 14:00:46;;;;;;;33.72;12.57;;;;;;;;;;5070169;28;20506;-80
2023/12/19 14:03:13;;;;;;;31.58;12.68;;;;;;;;;;5072210;28;20028;-80
2023/12/19 14:05:43;;;;;;;33.95;13.10;;;;;;;;;;5068676;28;20089;-80
2023/12/19 14:08:10;;;;;;;79.32;16.48;;;;;;;;;;5037358;28;20081;-77
2023/12/19 14:10:36;;;;;;;21.40;9.98;;;;;;;;;;5056994;28;20812;-82
2023/12/19 14:13:04;;;;;;;15.88;8.13;;;;;;;;;;5052050;28;20128;-81
2023/12/19 14:15:30;;;;;;;10.27;5.93;;;;;;;;;;5054366;28;20122;-81
2023/12/19 14:17:56;;;;;;;6.78;4.20;;;;;;;;;;5069826;28;20085;-82
2023/12/19 14:20:22;;;;;;;7.65;2.90;;;;;;;;;;5068028;28;20032;-82
2023/12/19 14:22:48;;;;;;;3.42;2.20;;;;;;;;;;5072807;28;20552;-84